Terminal Aerodrome Forecast
Issued by NWS Grand Forks, ND

Home | Current Version | Previous Version | Graphics & Text | Print | Product List | Glossary On
Versions: 1 2 3 4 5 6 7 8 9 10 11 12 13 14 15 16 17 18 19
784
FTUS43 KFGF 201137 AAB
TAFFAR
TAF AMD
KFAR 201137Z 2012/2112 17008KT P6SM BKN200
     FM201600 20011KT P6SM SCT250
     FM202000 24013KT P6SM SCT200
     FM202300 27014KT P6SM SCT250
     FM210200 30018KT P6SM FEW250
     FM210600 31021G29KT P6SM SCT045
     FM210700 32022G31KT P6SM BKN040=

USA.gov is the U.S. government's official web portal to all federal, state and local government web resources and services.